Time,TemperatureF,DewpointF,PressureIn,WindDirection,WindDirectionDegrees,WindSpeedMPH,WindSpeedGustMPH,Humidity,HourlyPrecipIn,Conditions,Clouds,dailyrainin,SoftwareType,DateUTC
2013-04-01 00:16:00,41.5,40.7,29.67,SSE,157,2.2,-999.0,97,-99.99,,,0.00,Acu-Link.com,2013-04-01 04:16:00,
2013-04-01 00:31:00,41.4,40.9,29.67,WSW,247,5.3,-999.0,98,-99.99,,,0.00,Acu-Link.com,2013-04-01 04:31:00,
2013-04-01 00:46:00,40.6,40.3,29.67,SSW,202,7.8,-999.0,99,-99.99,,,0.00,Acu-Link.com,2013-04-01 04:46:00,
2013-04-01 01:02:00,40.6,40.3,29.67,SW,225,5.8,-999.0,99,-99.99,,,0.00,Acu-Link.com,2013-04-01 05:02:00,
2013-04-01 01:17:00,41.0,40.7,29.67,WNW,292,9.4,-999.0,99,-99.99,,,0.00,Acu-Link.com,2013-04-01 05:17:00,
2013-04-01 01:32:00,41.0,40.7,29.67,West,270,6.8,-999.0,99,-99.99,,,0.00,Acu-Link.com,2013-04-01 05:32:00,
2013-04-01 01:47:00,41.2,40.7,29.67,WSW,247,2.7,-999.0,98,-99.99,,,0.00,Acu-Link.com,2013-04-01 05:47:00,
2013-04-01 02:03:00,41.0,40.5,29.67,SW,225,9.9,-999.0,98,-99.99,,,0.00,Acu-Link.com,2013-04-01 06:03:00,
2013-04-01 02:18:00,41.0,40.5,29.67,SE,135,4.2,-999.0,98,-99.99,,,0.00,Acu-Link.com,2013-04-01 06:18:00,
2013-04-01 02:33:00,40.6,39.8,29.67,West,270,3.7,-999.0,97,-99.99,,,0.00,Acu-Link.com,2013-04-01 06:33:00,
2013-04-01 02:48:00,40.5,40.0,29.67,West,270,4.2,-999.0,98,-99.99,,,0.00,Acu-Link.com,2013-04-01 06:48:00,
2013-04-01 03:03:00,40.5,40.0,29.65,SSW,202,4.2,-999.0,98,-99.99,,,0.00,Acu-Link.com,2013-04-01 07:03:00,
2013-04-01 03:34:00,39.9,39.4,29.65,WSW,247,2.2,-999.0,98,-99.99,,,0.00,Acu-Link.com,2013-04-01 07:34:00,
2013-04-01 03:49:00,39.7,39.2,29.66,WSW,247,3.7,-999.0,98,-99.99,,,0.00,Acu-Link.com,2013-04-01 07:49:00,
2013-04-01 04:05:00,40.3,39.8,29.65,ESE,112,2.2,-999.0,98,-99.99,,,0.00,Acu-Link.com,2013-04-01 08:05:00,
2013-04-01 04:20:00,40.6,40.1,29.65,SSE,157,7.8,-999.0,98,-99.99,,,0.00,Acu-Link.com,2013-04-01 08:20:00,
2013-04-01 04:35:00,41.0,40.7,29.65,West,270,6.3,-999.0,99,-99.99,,,0.00,Acu-Link.com,2013-04-01 08:35:00,
2013-04-01 04:51:00,41.0,40.7,29.65,West,270,5.3,-999.0,99,-99.99,,,0.00,Acu-Link.com,2013-04-01 08:51:00,
2013-04-01 05:06:00,41.4,41.1,29.64,WNW,292,7.8,-999.0,99,-99.99,,,0.00,Acu-Link.com,2013-04-01 09:06:00,
2013-04-01 05:36:00,42.1,41.6,29.64,WSW,247,10.9,-999.0,98,-99.99,,,0.00,Acu-Link.com,2013-04-01 09:36:00,
2013-04-01 05:51:00,41.9,41.4,29.64,WSW,247,8.3,-999.0,98,-99.99,,,0.00,Acu-Link.com,2013-04-01 09:51:00,
2013-04-01 06:07:00,41.5,41.0,29.64,West,270,5.3,-999.0,98,-99.99,,,0.00,Acu-Link.com,2013-04-01 10:07:00,
2013-04-01 06:22:00,41.5,41.0,29.64,West,270,4.7,-999.0,98,-99.99,,,0.00,Acu-Link.com,2013-04-01 10:22:00,
2013-04-01 06:37:00,41.5,41.0,29.64,West,270,8.3,-999.0,98,-99.99,,,0.00,Acu-Link.com,2013-04-01 10:37:00,
2013-04-01 06:52:00,41.5,41.0,29.64,SW,225,11.4,-999.0,98,-99.99,,,0.00,Acu-Link.com,2013-04-01 10:52:00,
2013-04-01 07:08:00,41.5,40.7,29.65,WNW,292,12.5,-999.0,97,-99.99,,,0.00,Acu-Link.com,2013-04-01 11:08:00,
2013-04-01 07:23:00,41.5,40.4,29.65,SW,225,6.8,-999.0,96,-99.99,,,0.00,Acu-Link.com,2013-04-01 11:23:00,
2013-04-01 07:38:00,41.4,40.1,29.66,WNW,292,6.8,-999.0,95,-99.99,,,0.00,Acu-Link.com,2013-04-01 11:38:00,
2013-04-01 07:53:00,41.0,39.7,29.67,West,270,6.8,-999.0,95,-99.99,,,0.00,Acu-Link.com,2013-04-01 11:53:00,
2013-04-01 08:09:00,41.0,39.9,29.67,NW,315,9.4,-999.0,96,-99.99,,,0.00,Acu-Link.com,2013-04-01 12:09:00,
2013-04-01 08:24:00,41.0,39.1,29.67,West,270,8.9,-999.0,93,-99.99,,,0.00,Acu-Link.com,2013-04-01 12:24:00,
2013-04-01 08:39:00,41.2,37.9,29.68,West,270,8.9,-999.0,88,-99.99,,,0.00,Acu-Link.com,2013-04-01 12:39:00,
2013-04-01 08:54:00,41.4,36.6,29.68,West,270,15.5,-999.0,83,-99.99,,,0.00,Acu-Link.com,2013-04-01 12:54:00,
2013-04-01 09:10:00,41.9,36.8,29.68,SW,225,18.6,-999.0,82,-99.99,,,0.00,Acu-Link.com,2013-04-01 13:10:00,
2013-04-01 09:25:00,41.7,36.9,29.68,West,270,9.9,-999.0,83,-99.99,,,0.00,Acu-Link.com,2013-04-01 13:25:00,
2013-04-01 09:40:00,41.7,36.0,29.68,West,270,11.4,-999.0,80,-99.99,,,0.00,Acu-Link.com,2013-04-01 13:40:00,
2013-04-01 09:56:00,41.2,36.1,29.69,South,180,7.3,-999.0,82,-99.99,,,0.00,Acu-Link.com,2013-04-01 13:56:00,
2013-04-01 10:41:00,37.9,33.8,29.70,West,270,4.7,-999.0,85,-99.99,,,0.00,Acu-Link.com,2013-04-01 14:41:00,
2013-04-01 10:56:00,36.7,33.5,29.72,West,270,6.8,-999.0,88,-99.99,,,0.00,Acu-Link.com,2013-04-01 14:56:00,
2013-04-01 11:12:00,34.3,33.8,29.73,West,270,7.8,-999.0,98,-99.99,,,0.00,Acu-Link.com,2013-04-01 15:12:00,
2013-04-01 11:27:00,34.5,33.2,29.73,West,270,7.3,-999.0,95,-99.99,,,0.00,Acu-Link.com,2013-04-01 15:27:00,
2013-04-01 11:57:00,33.4,33.1,29.74,West,270,6.3,-999.0,99,-99.99,,,0.00,Acu-Link.com,2013-04-01 15:57:00,
2013-04-01 12:13:00,32.9,32.7,29.75,WSW,247,3.7,-999.0,99,-99.99,,,0.00,Acu-Link.com,2013-04-01 16:13:00,
2013-04-01 12:28:00,32.9,32.7,29.75,South,180,3.2,-999.0,99,-99.99,,,0.00,Acu-Link.com,2013-04-01 16:28:00,
2013-04-01 12:43:00,33.3,33.0,29.75,West,270,3.7,-999.0,99,-99.99,,,0.00,Acu-Link.com,2013-04-01 16:43:00,
2013-04-01 12:58:00,33.1,32.6,29.75,SW,225,11.4,-999.0,98,-99.99,,,0.01,Acu-Link.com,2013-04-01 16:58:00,
2013-04-01 13:13:00,32.4,32.2,29.75,West,270,4.7,-999.0,99,-99.99,,,0.01,Acu-Link.com,2013-04-01 17:13:00,
2013-04-01 13:29:00,32.0,31.8,29.77,West,270,5.3,-999.0,99,-99.99,,,0.01,Acu-Link.com,2013-04-01 17:29:00,
2013-04-01 13:44:00,32.0,31.8,29.76,West,270,6.8,-999.0,99,-99.99,,,0.01,Acu-Link.com,2013-04-01 17:44:00,
2013-04-01 13:59:00,32.7,32.2,29.76,SSW,202,5.8,-999.0,98,-99.99,,,0.01,Acu-Link.com,2013-04-01 17:59:00,
2013-04-01 14:14:00,32.0,31.8,29.77,West,270,4.7,-999.0,99,-99.99,,,0.01,Acu-Link.com,2013-04-01 18:14:00,
2013-04-01 14:30:00,31.5,31.3,29.77,West,270,6.8,-999.0,99,-99.99,,,0.01,Acu-Link.com,2013-04-01 18:30:00,
2013-04-01 14:45:00,30.2,30.0,29.78,NNW,337,6.3,-999.0,99,-99.99,,,0.01,Acu-Link.com,2013-04-01 18:45:00,
2013-04-01 15:00:00,30.2,30.0,29.78,West,270,5.3,-999.0,99,-99.99,,,0.01,Acu-Link.com,2013-04-01 19:00:00,
2013-04-01 15:15:00,30.7,30.2,29.78,West,270,7.3,-999.0,98,-99.99,,,0.01,Acu-Link.com,2013-04-01 19:15:00,
2013-04-01 15:30:00,31.6,30.3,29.78,West,270,5.3,-999.0,95,-99.99,,,0.01,Acu-Link.com,2013-04-01 19:30:00,
2013-04-01 15:46:00,31.8,30.3,29.78,SSW,202,6.8,-999.0,94,-99.99,,,0.01,Acu-Link.com,2013-04-01 19:46:00,
2013-04-01 16:16:00,33.6,30.2,29.78,NW,315,8.3,-999.0,87,-99.99,,,0.03,Acu-Link.com,2013-04-01 20:16:00,
2013-04-01 16:31:00,34.5,28.4,29.78,West,270,8.9,-999.0,78,-99.99,,,0.03,Acu-Link.com,2013-04-01 20:31:00,
2013-04-01 16:46:00,36.1,29.0,29.78,NW,315,7.3,-999.0,75,-99.99,,,0.03,Acu-Link.com,2013-04-01 20:46:00,
2013-04-01 17:02:00,34.5,27.1,29.78,West,270,8.3,-999.0,74,-99.99,,,0.03,Acu-Link.com,2013-04-01 21:02:00,
2013-04-01 17:17:00,35.6,24.6,29.78,West,270,8.9,-999.0,64,-99.99,,,0.03,Acu-Link.com,2013-04-01 21:17:00,
2013-04-01 17:32:00,37.2,22.1,29.78,WSW,247,6.3,-999.0,54,-99.99,,,0.03,Acu-Link.com,2013-04-01 21:32:00,
2013-04-01 17:47:00,36.0,22.3,29.79,WSW,247,16.1,-999.0,57,-99.99,,,0.03,Acu-Link.com,2013-04-01 21:47:00,
2013-04-01 18:02:00,36.0,20.5,29.79,WNW,292,17.6,-999.0,53,-99.99,,,0.03,Acu-Link.com,2013-04-01 22:02:00,
2013-04-01 18:18:00,35.8,19.5,29.80,West,270,8.9,-999.0,51,-99.99,,,0.03,Acu-Link.com,2013-04-01 22:18:00,
2013-04-01 18:33:00,35.1,19.7,29.80,WNW,292,11.4,-999.0,53,-99.99,,,0.03,Acu-Link.com,2013-04-01 22:33:00,
2013-04-01 18:48:00,35.2,18.0,29.80,WNW,292,10.4,-999.0,49,-99.99,,,0.03,Acu-Link.com,2013-04-01 22:48:00,
2013-04-01 19:03:00,34.2,17.5,29.80,NNW,337,4.7,-999.0,50,-99.99,,,0.03,Acu-Link.com,2013-04-01 23:03:00,
2013-04-01 19:19:00,33.6,17.4,29.81,West,270,6.8,-999.0,51,-99.99,,,0.03,Acu-Link.com,2013-04-01 23:19:00,
2013-04-01 19:34:00,33.1,17.4,29.81,NW,315,8.3,-999.0,52,-99.99,,,0.03,Acu-Link.com,2013-04-01 23:34:00,
2013-04-01 19:49:00,32.5,17.7,29.82,WSW,247,6.3,-999.0,54,-99.99,,,0.03,Acu-Link.com,2013-04-01 23:49:00,
2013-04-01 20:04:00,32.0,16.8,29.82,WNW,292,3.7,-999.0,53,-99.99,,,0.03,Acu-Link.com,2013-04-02 00:04:00,
2013-04-01 20:19:00,31.8,16.2,29.83,West,270,5.3,-999.0,52,-99.99,,,0.03,Acu-Link.com,2013-04-02 00:19:00,
2013-04-01 20:35:00,31.1,16.8,29.84,West,270,5.3,-999.0,55,-99.99,,,0.03,Acu-Link.com,2013-04-02 00:35:00,
2013-04-01 20:50:00,30.6,16.8,29.84,WNW,292,4.7,-999.0,56,-99.99,,,0.03,Acu-Link.com,2013-04-02 00:50:00,
2013-04-01 21:05:00,30.7,16.0,29.85,West,270,5.3,-999.0,54,-99.99,,,0.03,Acu-Link.com,2013-04-02 01:05:00,
2013-04-01 21:20:00,30.0,15.8,29.84,North,0,5.8,-999.0,55,-99.99,,,0.03,Acu-Link.com,2013-04-02 01:20:00,
2013-04-01 21:35:00,29.8,15.6,29.85,West,270,4.7,-999.0,55,-99.99,,,0.03,Acu-Link.com,2013-04-02 01:35:00,
2013-04-01 21:51:00,29.8,15.6,29.87,WNW,292,7.8,-999.0,55,-99.99,,,0.03,Acu-Link.com,2013-04-02 01:51:00,
2013-04-01 22:06:00,29.7,15.5,29.87,WSW,247,4.2,-999.0,55,-99.99,,,0.03,Acu-Link.com,2013-04-02 02:06:00,
2013-04-01 22:21:00,29.5,15.3,29.87,WNW,292,6.3,-999.0,55,-99.99,,,0.03,Acu-Link.com,2013-04-02 02:21:00,
2013-04-01 22:37:00,29.3,16.0,29.87,West,270,9.4,-999.0,57,-99.99,,,0.03,Acu-Link.com,2013-04-02 02:37:00,
2013-04-01 22:52:00,29.3,16.0,29.87,West,270,4.2,-999.0,57,-99.99,,,0.03,Acu-Link.com,2013-04-02 02:52:00,
2013-04-01 23:07:00,29.1,15.4,29.86,West,270,5.8,-999.0,56,-99.99,,,0.03,Acu-Link.com,2013-04-02 03:07:00,
2013-04-01 23:22:00,29.1,15.4,29.86,West,270,9.9,-999.0,56,-99.99,,,0.03,Acu-Link.com,2013-04-02 03:22:00,
2013-04-01 23:37:00,28.9,15.6,29.86,South,180,7.8,-999.0,57,-99.99,,,0.03,Acu-Link.com,2013-04-02 03:37:00,
2013-04-01 23:53:00,28.8,15.5,29.86,West,270,7.8,-999.0,57,-99.99,,,0.03,Acu-Link.com,2013-04-02 03:53:00,